createdAt,value
2022-11-07T00:00:13.368Z,94186.84
2022-11-07T00:02:39.923Z,94185.81
2022-11-07T00:05:07.030Z,94190.72
2022-11-07T00:07:33.499Z,94188.38
2022-11-07T00:09:59.899Z,94187.06
2022-11-07T00:12:26.308Z,94196.91
2022-11-07T00:14:52.692Z,94199.25
2022-11-07T00:17:19.165Z,94199.75
2022-11-07T00:19:45.772Z,94196.34
2022-11-07T00:22:12.141Z,94199.69
2022-11-07T00:24:38.682Z,94209.00
2022-11-07T00:27:05.326Z,94207.94
2022-11-07T00:29:31.767Z,94217.97
2022-11-07T00:31:59.637Z,94207.31
2022-11-07T00:34:26.145Z,94220.75
2022-11-07T00:36:52.608Z,94225.63
2022-11-07T00:39:19.099Z,94222.75
2022-11-07T00:41:48.467Z,94216.47
2022-11-07T00:44:15.572Z,94224.25
2022-11-07T00:46:41.943Z,94214.88
2022-11-07T00:49:08.364Z,94218.72
2022-11-07T00:51:35.025Z,94225.72
2022-11-07T00:54:03.499Z,94225.44
2022-11-07T00:56:30.028Z,94229.59
2022-11-07T00:58:58.166Z,94238.63
2022-11-07T01:01:30.466Z,94226.47
2022-11-07T01:04:15.714Z,94236.00
2022-11-07T01:06:43.820Z,94224.06
2022-11-07T01:09:13.032Z,94226.41
2022-11-07T01:11:40.625Z,94234.44
2022-11-07T01:14:09.462Z,94229.25
2022-11-07T01:16:38.735Z,94229.06
2022-11-07T01:19:06.291Z,94223.63
2022-11-07T01:21:32.691Z,94230.91
2022-11-07T01:24:00.217Z,94229.63
2022-11-07T01:26:27.006Z,94231.97
2022-11-07T01:28:53.442Z,94228.88
2022-11-07T01:31:20.139Z,94230.97
2022-11-07T01:33:47.061Z,94235.59
2022-11-07T01:36:16.580Z,94247.53
2022-11-07T01:38:46.003Z,94249.34
2022-11-07T01:41:21.773Z,94241.06
2022-11-07T01:44:02.379Z,94236.69
2022-11-07T01:46:43.229Z,94238.03
2022-11-07T01:49:15.550Z,94250.22
2022-11-07T01:51:48.376Z,94247.91
2022-11-07T01:54:19.290Z,94239.09
2022-11-07T01:56:46.178Z,94240.91
2022-11-07T01:59:17.787Z,94242.44
2022-11-07T02:01:48.379Z,94235.97
2022-11-07T02:04:16.585Z,94236.50
2022-11-07T02:06:49.683Z,94243.78
2022-11-07T02:09:16.157Z,94240.94
2022-11-07T02:11:42.638Z,94251.31
2022-11-07T02:14:15.074Z,94243.31
2022-11-07T02:16:41.847Z,94237.09
2022-11-07T02:19:15.266Z,94242.81
2022-11-07T02:21:49.500Z,94235.31
2022-11-07T02:24:24.142Z,94241.03
2022-11-07T02:26:52.592Z,94242.38
2022-11-07T02:29:19.991Z,94240.06
2022-11-07T02:31:46.363Z,94238.53
2022-11-07T02:34:12.733Z,94238.56
2022-11-07T02:36:39.255Z,94235.50
2022-11-07T02:39:05.616Z,94241.97
2022-11-07T02:41:34.650Z,94239.41
2022-11-07T02:44:08.140Z,94241.50
2022-11-07T02:46:35.495Z,94253.16
2022-11-07T02:49:02.138Z,94257.84
2022-11-07T02:51:29.061Z,94253.69
2022-11-07T02:53:55.883Z,94256.56
2022-11-07T02:56:22.894Z,94250.06
2022-11-07T02:58:49.696Z,94256.00
2022-11-07T03:01:16.170Z,94252.38
2022-11-07T03:03:46.117Z,94247.47
2022-11-07T03:06:19.069Z,94247.97
2022-11-07T03:08:45.604Z,94252.13
2022-11-07T03:11:12.999Z,94248.75
2022-11-07T03:13:40.240Z,94257.03
2022-11-07T03:16:09.400Z,94269.69
2022-11-07T03:18:36.636Z,94273.81
2022-11-07T03:21:03.794Z,94279.53
2022-11-07T03:23:30.359Z,94267.09
2022-11-07T03:25:57.253Z,94262.41
2022-11-07T03:28:24.717Z,94260.84
2022-11-07T03:30:52.098Z,94259.53
2022-11-07T03:33:18.609Z,94258.47
2022-11-07T03:35:44.975Z,94251.50
2022-11-07T03:38:11.623Z,94254.09
2022-11-07T03:40:38.135Z,94256.41
2022-11-07T03:43:04.506Z,94255.88
2022-11-07T03:45:30.888Z,94254.59
2022-11-07T03:47:57.248Z,94253.31
2022-11-07T03:50:23.608Z,94262.34
2022-11-07T03:52:49.967Z,94262.34
2022-11-07T03:55:18.045Z,94267.50
2022-11-07T03:57:45.447Z,94272.16
2022-11-07T04:00:12.960Z,94277.84
2022-11-07T04:02:39.860Z,94280.94
2022-11-07T04:05:06.901Z,94276.78
2022-11-07T04:07:33.406Z,94273.38
2022-11-07T04:09:59.780Z,94278.28
2022-11-07T04:12:44.664Z,94280.03
2022-11-07T04:15:29.954Z,94284.41
2022-11-07T04:17:56.565Z,94278.66
2022-11-07T04:20:23.274Z,94276.03
2022-11-07T04:22:49.642Z,94279.63
2022-11-07T04:25:16.092Z,94284.00
2022-11-07T04:27:42.524Z,94281.13
2022-11-07T04:30:26.095Z,94286.84
2022-11-07T04:32:58.232Z,94286.31
2022-11-07T04:35:27.861Z,94293.59
2022-11-07T04:37:54.254Z,94289.72
2022-11-07T04:40:21.333Z,94289.22
2022-11-07T04:42:48.709Z,94296.22
2022-11-07T04:45:15.308Z,94298.28
2022-11-07T04:47:42.007Z,94292.31
2022-11-07T04:50:11.191Z,94295.91
2022-11-07T04:52:37.973Z,94298.75
2022-11-07T04:55:06.100Z,94298.75
2022-11-07T04:57:32.520Z,94302.38
2022-11-07T04:59:59.078Z,94304.41
2022-11-07T05:02:25.897Z,94302.03
2022-11-07T05:04:53.220Z,94298.13
2022-11-07T05:07:20.239Z,94305.91
2022-11-07T05:09:46.639Z,94315.75
2022-11-07T05:12:13.203Z,94309.53
2022-11-07T05:14:39.595Z,94313.16
2022-11-07T05:17:06.038Z,94306.44
2022-11-07T05:19:32.437Z,94312.41
2022-11-07T05:22:17.410Z,94311.09
2022-11-07T05:24:43.764Z,94315.00
2022-11-07T05:27:18.230Z,94312.94
2022-11-07T05:29:44.775Z,94304.69
2022-11-07T05:32:11.239Z,94307.03
2022-11-07T05:34:37.642Z,94302.91
2022-11-07T05:37:07.360Z,94305.00
2022-11-07T05:39:33.772Z,94305.00
2022-11-07T05:42:01.416Z,94296.16
2022-11-07T05:44:28.156Z,94304.44
2022-11-07T05:46:55.962Z,94312.75
2022-11-07T05:49:22.353Z,94310.66
2022-11-07T05:51:48.713Z,94317.41
2022-11-07T05:54:15.110Z,94315.06
2022-11-07T05:56:43.872Z,94323.06
2022-11-07T05:59:11.147Z,94317.59
2022-11-07T06:01:37.654Z,94315.53
2022-11-07T06:04:04.996Z,94315.53
2022-11-07T06:06:31.695Z,94311.09
2022-11-07T06:08:58.404Z,94320.94
2022-11-07T06:11:25.425Z,94317.59
2022-11-07T06:13:53.036Z,94321.72
2022-11-07T06:16:19.409Z,94327.97
2022-11-07T06:18:45.786Z,94328.72
2022-11-07T06:21:12.263Z,94337.53
2022-11-07T06:23:38.626Z,94333.63
2022-11-07T06:26:05.226Z,94325.56
2022-11-07T06:28:31.591Z,94322.41
2022-11-07T06:31:02.468Z,94316.44
2022-11-07T06:33:30.004Z,94327.06
2022-11-07T06:36:03.638Z,94325.97
2022-11-07T06:38:30.012Z,94332.19
2022-11-07T06:40:56.372Z,94323.34
2022-11-07T06:43:22.818Z,94329.06
2022-11-07T06:45:49.250Z,94329.28
2022-11-07T06:48:15.742Z,94333.44
2022-11-07T06:50:42.195Z,94338.63
2022-11-07T06:53:11.439Z,94334.69
2022-11-07T06:55:38.987Z,94334.69
2022-11-07T06:58:06.165Z,94338.03
2022-11-07T07:00:35.339Z,94345.28
2022-11-07T07:03:01.856Z,94334.59
2022-11-07T07:05:28.315Z,94353.31
2022-11-07T07:07:55.779Z,94348.13
2022-11-07T07:10:24.678Z,94346.28
2022-11-07T07:12:51.245Z,94351.44
2022-11-07T07:15:17.643Z,94348.06
2022-11-07T07:17:44.007Z,94347.78
2022-11-07T07:20:11.024Z,94360.50
2022-11-07T07:22:37.511Z,94355.31
2022-11-07T07:25:04.096Z,94359.97
2022-11-07T07:27:30.476Z,94357.63
2022-11-07T07:29:56.821Z,94356.84
2022-11-07T07:32:25.161Z,94361.00
2022-11-07T07:34:52.136Z,94355.53
2022-11-07T07:37:19.022Z,94358.34
2022-11-07T07:39:45.430Z,94362.50
2022-11-07T07:42:11.870Z,94372.91
2022-11-07T07:44:38.569Z,94367.16
2022-11-07T07:47:10.054Z,94369.22
2022-11-07T07:49:37.527Z,94372.03
2022-11-07T07:52:04.091Z,94364.97
2022-11-07T07:54:30.489Z,94369.06
2022-11-07T07:56:56.909Z,94371.13
2022-11-07T07:59:23.281Z,94373.63
2022-11-07T08:01:55.242Z,94382.38
2022-11-07T08:04:23.118Z,94381.28
2022-11-07T08:06:49.491Z,94385.38
2022-11-07T08:09:15.868Z,94379.59
2022-11-07T08:11:42.248Z,94382.72
2022-11-07T08:14:08.641Z,94378.25
2022-11-07T08:16:35.016Z,94383.16
2022-11-07T08:19:01.385Z,94387.25
2022-11-07T08:21:27.800Z,94387.69
2022-11-07T08:23:54.818Z,94396.97
2022-11-07T08:26:21.275Z,94395.88
2022-11-07T08:28:47.656Z,94392.16
2022-11-07T08:31:14.141Z,94396.03
2022-11-07T08:33:40.757Z,94386.88
2022-11-07T08:36:07.669Z,94399.84
2022-11-07T08:38:35.599Z,94398.72
2022-11-07T08:41:02.554Z,94395.28
2022-11-07T08:43:29.004Z,94393.16
2022-11-07T08:45:55.666Z,94404.81
2022-11-07T08:48:22.759Z,94400.09
2022-11-07T08:50:54.131Z,94403.72
2022-11-07T08:53:21.714Z,94406.81
2022-11-07T08:55:48.283Z,94404.19
2022-11-07T08:58:15.105Z,94405.94
2022-11-07T09:00:41.938Z,94411.94
2022-11-07T09:03:31.276Z,94405.09
2022-11-07T09:05:57.264Z,94410.75
2022-11-07T09:08:23.747Z,94412.72
2022-11-07T09:10:50.167Z,94405.91
2022-11-07T09:13:16.943Z,94411.22
2022-11-07T09:15:47.848Z,94407.50
2022-11-07T09:18:16.882Z,94413.41
2022-11-07T09:20:43.214Z,94410.72
2022-11-07T09:23:09.602Z,94411.22
2022-11-07T09:25:35.954Z,94417.41
2022-11-07T09:28:03.974Z,94415.28
2022-11-07T09:30:30.703Z,94419.09
2022-11-07T09:32:57.125Z,94413.31
2022-11-07T09:35:23.612Z,94420.53
2022-11-07T09:37:51.315Z,94419.69
2022-11-07T09:40:40.167Z,94421.09
2022-11-07T09:43:24.865Z,94428.72
2022-11-07T09:46:20.384Z,94418.81
2022-11-07T09:48:54.301Z,94411.09
2022-11-07T09:51:30.234Z,94428.03
2022-11-07T09:54:01.284Z,94421.97
2022-11-07T09:56:30.939Z,94423.44
2022-11-07T09:59:01.136Z,94426.72
2022-11-07T10:01:31.781Z,94431.94
2022-11-07T10:04:23.562Z,94436.19
2022-11-07T10:06:51.090Z,94437.75
2022-11-07T10:09:34.291Z,94439.00
2022-11-07T10:12:16.172Z,94431.53
2022-11-07T10:14:53.322Z,94434.53
2022-11-07T10:17:45.815Z,94420.38
2022-11-07T10:20:39.753Z,94436.03
2022-11-07T10:23:19.138Z,94440.69
2022-11-07T10:25:58.861Z,94434.78
2022-11-07T10:28:27.425Z,94430.91
2022-11-07T10:30:58.138Z,94432.16
2022-11-07T10:33:36.561Z,94430.22
2022-11-07T10:36:27.808Z,94426.91
2022-11-07T10:38:54.971Z,94419.16
2022-11-07T10:41:27.009Z,94422.44
2022-11-07T10:44:00.727Z,94434.59
2022-11-07T10:46:40.739Z,94425.81
2022-11-07T10:49:30.936Z,94429.81
2022-11-07T10:52:18.009Z,94436.78
2022-11-07T10:54:47.329Z,94423.38
2022-11-07T10:57:19.921Z,94426.91
2022-11-07T10:59:56.540Z,94420.34
2022-11-07T11:02:26.377Z,94407.47
2022-11-07T11:05:02.489Z,94407.34
2022-11-07T11:07:40.029Z,94408.13
2022-11-07T11:10:24.671Z,94402.78
2022-11-07T11:12:51.843Z,94405.78
2022-11-07T11:15:20.150Z,94402.13
2022-11-07T11:17:47.528Z,94395.72
2022-11-07T11:20:40.766Z,94389.19
2022-11-07T11:23:18.868Z,94394.78
2022-11-07T11:25:48.639Z,94388.19
2022-11-07T11:28:27.829Z,94392.69
2022-11-07T11:31:01.139Z,94391.59
2022-11-07T11:33:36.883Z,94390.22
2022-11-07T11:36:16.144Z,94385.03
2022-11-07T11:38:52.958Z,94384.75
2022-11-07T11:41:34.700Z,94381.03
2022-11-07T11:44:41.613Z,94383.84
2022-11-07T11:47:20.151Z,94376.31
2022-11-07T11:49:54.526Z,94381.19
2022-11-07T11:52:23.425Z,94371.91
2022-11-07T11:54:51.788Z,94375.31
2022-11-07T11:57:27.184Z,94365.78
2022-11-07T12:00:17.139Z,94371.97
2022-11-07T12:03:41.852Z,94367.56
2022-11-07T12:06:14.224Z,94372.97
2022-11-07T12:09:01.757Z,94371.41
2022-11-07T12:11:50.928Z,94373.25
2022-11-07T12:14:31.960Z,94366.50
2022-11-07T12:17:09.390Z,94366.00
2022-11-07T12:20:02.613Z,94362.91
2022-11-07T12:22:43.059Z,94356.63
2022-11-07T12:25:22.717Z,94368.16
2022-11-07T12:28:17.868Z,94360.63
2022-11-07T12:30:57.887Z,94360.91
2022-11-07T12:33:36.452Z,94362.47
2022-11-07T12:36:23.446Z,94356.44
2022-11-07T12:39:14.504Z,94356.91
2022-11-07T12:41:58.053Z,94363.06
2022-11-07T12:45:01.888Z,94356.25
2022-11-07T12:47:48.932Z,94351.50
2022-11-07T12:50:23.365Z,94368.47
2022-11-07T12:52:57.102Z,94360.53
2022-11-07T12:55:27.583Z,94357.78
2022-11-07T12:57:55.426Z,94354.84
2022-11-07T13:00:29.525Z,94363.78
2022-11-07T13:03:12.958Z,94357.59
2022-11-07T13:05:51.842Z,94355.16
2022-11-07T13:08:30.988Z,94365.47
2022-11-07T13:11:06.661Z,94355.94
2022-11-07T13:14:07.182Z,94357.34
2022-11-07T13:16:36.133Z,94355.50
2022-11-07T13:19:10.577Z,94353.22
2022-11-07T13:21:42.027Z,94353.69
2022-11-07T13:24:19.902Z,94358.13
2022-11-07T13:26:47.883Z,94360.94
2022-11-07T13:29:39.508Z,94360.34
2022-11-07T13:32:12.375Z,94358.09
2022-11-07T13:34:45.288Z,94361.75
2022-11-07T13:37:22.784Z,94361.09
2022-11-07T13:39:54.828Z,94360.59
2022-11-07T13:42:25.608Z,94353.81
2022-11-07T13:44:59.395Z,94360.72
2022-11-07T13:47:34.627Z,94357.78
2022-11-07T13:50:09.961Z,94359.56
2022-11-07T13:53:04.550Z,94358.16
2022-11-07T13:55:55.572Z,94356.88
2022-11-07T13:58:22.336Z,94358.38
2022-11-07T14:00:48.813Z,94358.19
2022-11-07T14:03:24.720Z,94358.19
2022-11-07T14:05:52.056Z,94346.75
2022-11-07T14:08:31.334Z,94355.19
2022-11-07T14:10:58.852Z,94350.44
2022-11-07T14:13:30.569Z,94356.16
2022-11-07T14:16:00.579Z,94361.13
2022-11-07T14:18:32.149Z,94358.69
2022-11-07T14:21:00.382Z,94351.75
2022-11-07T14:23:32.237Z,94352.72
2022-11-07T14:26:23.361Z,94353.06
2022-11-07T14:28:50.598Z,94357.50
2022-11-07T14:31:31.969Z,94356.72
2022-11-07T14:34:01.114Z,94356.72
2022-11-07T14:36:28.628Z,94350.44
2022-11-07T14:39:00.945Z,94346.28
2022-11-07T14:41:27.741Z,94356.09
2022-11-07T14:43:57.604Z,94356.53
2022-11-07T14:46:25.178Z,94358.78
2022-11-07T14:48:52.724Z,94358.72
2022-11-07T14:51:25.350Z,94365.41
2022-11-07T14:54:04.186Z,94352.47
2022-11-07T14:56:36.967Z,94350.00
2022-11-07T14:59:03.997Z,94354.75
2022-11-07T15:01:34.139Z,94355.03
2022-11-07T15:04:16.576Z,94349.22
2022-11-07T15:06:44.968Z,94356.44
2022-11-07T15:09:12.206Z,94349.38
2022-11-07T15:11:59.831Z,94356.22
2022-11-07T15:14:34.370Z,94344.75
2022-11-07T15:17:04.129Z,94353.59
2022-11-07T15:19:33.345Z,94350.94
2022-11-07T15:22:03.190Z,94338.53
2022-11-07T15:24:41.241Z,94361.72
2022-11-07T15:27:13.687Z,94349.56
2022-11-07T15:30:02.147Z,94349.19
2022-11-07T15:32:41.699Z,94341.00
2022-11-07T15:35:42.465Z,94342.94
2022-11-07T15:38:03.501Z,94353.00
2022-11-07T15:40:30.437Z,94325.31
2022-11-07T15:42:57.152Z,94351.69
2022-11-07T15:45:23.865Z,94352.84
2022-11-07T15:47:51.436Z,94359.72
2022-11-07T15:50:24.298Z,94355.06
2022-11-07T15:52:52.327Z,94363.00
2022-11-07T15:55:21.854Z,94360.97
2022-11-07T15:57:51.961Z,94361.56
2022-11-07T16:00:26.080Z,94361.88
2022-11-07T16:02:52.704Z,94354.91
2022-11-07T16:05:19.247Z,94364.38
2022-11-07T16:07:46.275Z,94357.09
2022-11-07T16:10:26.625Z,94355.06
2022-11-07T16:12:53.771Z,94360.38
2022-11-07T16:15:23.750Z,94359.91
2022-11-07T16:17:50.211Z,94365.97
2022-11-07T16:20:19.334Z,94367.63
2022-11-07T16:22:49.594Z,94361.94
2022-11-07T16:25:21.779Z,94363.56
2022-11-07T16:27:51.153Z,94367.53
2022-11-07T16:30:18.690Z,94368.41
2022-11-07T16:32:45.436Z,94363.75
2022-11-07T16:35:11.893Z,94367.72
2022-11-07T16:37:38.735Z,94367.50
2022-11-07T16:40:06.702Z,94365.78
2022-11-07T16:42:33.141Z,94364.78
2022-11-07T16:44:59.728Z,94358.50
2022-11-07T16:47:26.293Z,94367.56
2022-11-07T16:49:55.976Z,94357.50
2022-11-07T16:52:25.180Z,94361.94
2022-11-07T16:54:51.594Z,94355.19
2022-11-07T16:57:18.722Z,94364.84
2022-11-07T16:59:46.471Z,94357.13
2022-11-07T17:02:21.019Z,94362.81
2022-11-07T17:04:50.328Z,94364.16
2022-11-07T17:07:18.413Z,94360.00
2022-11-07T17:09:44.873Z,94361.06
2022-11-07T17:12:22.344Z,94368.88
2022-11-07T17:14:49.528Z,94359.81
2022-11-07T17:17:17.813Z,94362.69
2022-11-07T17:19:44.543Z,94361.13
2022-11-07T17:22:11.412Z,94367.41
2022-11-07T17:24:38.254Z,94374.44
2022-11-07T17:27:23.825Z,94366.94
2022-11-07T17:29:51.729Z,94384.38
2022-11-07T17:32:18.579Z,94366.72
2022-11-07T17:34:45.637Z,94377.13
2022-11-07T17:37:17.691Z,94373.53
2022-11-07T17:39:45.535Z,94362.44
2022-11-07T17:42:13.017Z,94374.41
2022-11-07T17:44:39.902Z,94359.50
2022-11-07T17:47:06.701Z,94374.50
2022-11-07T17:49:33.260Z,94376.31
2022-11-07T17:51:59.684Z,94377.34
2022-11-07T17:54:29.497Z,94377.44
2022-11-07T17:56:56.367Z,94376.09
2022-11-07T17:59:23.294Z,94376.88
2022-11-07T18:01:49.899Z,94377.66
2022-11-07T18:04:16.396Z,94377.66
2022-11-07T18:06:43.312Z,94371.41
2022-11-07T18:09:14.832Z,94374.50
2022-11-07T18:11:41.488Z,94375.53
2022-11-07T18:14:09.900Z,94372.94
2022-11-07T18:16:37.281Z,94380.25
2022-11-07T18:19:05.329Z,94381.03
2022-11-07T18:21:32.256Z,94376.41
2022-11-07T18:23:58.678Z,94384.22
2022-11-07T18:26:30.920Z,94379.56
2022-11-07T18:29:02.116Z,94373.66
2022-11-07T18:31:28.742Z,94379.91
2022-11-07T18:34:04.469Z,94380.47
2022-11-07T18:36:33.095Z,94374.28
2022-11-07T18:39:05.032Z,94371.19
2022-11-07T18:41:31.681Z,94373.28
2022-11-07T18:44:03.172Z,94367.91
2022-11-07T18:46:31.111Z,94374.72
2022-11-07T18:48:59.525Z,94357.91
2022-11-07T18:51:25.976Z,94375.06
2022-11-07T18:53:54.800Z,94366.75
2022-11-07T18:56:21.852Z,94367.03
2022-11-07T18:58:48.300Z,94366.75
2022-11-07T19:01:19.141Z,94370.13
2022-11-07T19:03:46.571Z,94361.56
2022-11-07T19:06:15.990Z,94361.06
2022-11-07T19:08:44.616Z,94353.03
2022-11-07T19:11:13.853Z,94351.28
2022-11-07T19:13:42.695Z,94356.03
2022-11-07T19:16:11.083Z,94353.00
2022-11-07T19:18:38.067Z,94359.88
2022-11-07T19:21:05.271Z,94345.44
2022-11-07T19:23:32.238Z,94351.66
2022-11-07T19:25:58.740Z,94362.31
2022-11-07T19:28:25.222Z,94351.44
2022-11-07T19:30:51.652Z,94361.34
2022-11-07T19:33:18.473Z,94355.97
2022-11-07T19:35:45.157Z,94358.63
2022-11-07T19:38:13.554Z,94354.59
2022-11-07T19:40:41.378Z,94358.81
2022-11-07T19:43:09.396Z,94360.91
2022-11-07T19:45:40.601Z,94358.06
2022-11-07T19:48:07.109Z,94362.00
2022-11-07T19:50:33.503Z,94369.88
2022-11-07T19:52:59.910Z,94363.16
2022-11-07T19:55:26.320Z,94360.31
2022-11-07T19:57:52.782Z,94370.41
2022-11-07T20:00:19.288Z,94371.69
2022-11-07T20:02:48.674Z,94366.34
2022-11-07T20:05:23.793Z,94374.63
2022-11-07T20:07:58.104Z,94377.22
2022-11-07T20:10:27.477Z,94376.44
2022-11-07T20:12:54.750Z,94377.47
2022-11-07T20:15:21.662Z,94378.03
2022-11-07T20:17:48.197Z,94377.81
2022-11-07T20:20:14.858Z,94374.69
2022-11-07T20:22:46.458Z,94374.69
2022-11-07T20:25:13.589Z,94362.31
2022-11-07T20:27:40.122Z,94376.50
2022-11-07T20:30:07.308Z,94373.06
2022-11-07T20:32:33.761Z,94382.13
2022-11-07T20:35:00.209Z,94378.50
2022-11-07T20:37:26.662Z,94377.44
2022-11-07T20:39:53.077Z,94379.00
2022-11-07T20:42:19.542Z,94382.38
2022-11-07T20:44:46.123Z,94381.59
2022-11-07T20:47:12.547Z,94381.59
2022-11-07T20:49:41.208Z,94387.34
2022-11-07T20:52:07.960Z,94387.66
2022-11-07T20:54:35.245Z,94391.03
2022-11-07T20:57:01.895Z,94384.56
2022-11-07T20:59:28.348Z,94386.16
2022-11-07T21:02:00.202Z,94395.03
2022-11-07T21:04:36.267Z,94395.34
2022-11-07T21:07:10.729Z,94392.56
2022-11-07T21:09:37.329Z,94396.47
2022-11-07T21:12:03.855Z,94394.09
2022-11-07T21:14:30.362Z,94395.63
2022-11-07T21:16:57.338Z,94397.69
2022-11-07T21:19:23.797Z,94404.72
2022-11-07T21:21:50.330Z,94405.00
2022-11-07T21:24:16.763Z,94399.78
2022-11-07T21:26:43.328Z,94397.69
2022-11-07T21:29:10.897Z,94397.66
2022-11-07T21:31:39.288Z,94398.66
2022-11-07T21:34:07.330Z,94392.88
2022-11-07T21:36:33.859Z,94394.44
2022-11-07T21:39:01.895Z,94398.88
2022-11-07T21:41:30.068Z,94397.59
2022-11-07T21:43:59.843Z,94388.88
2022-11-07T21:46:31.562Z,94390.94
2022-11-07T21:48:58.626Z,94399.56
2022-11-07T21:51:30.496Z,94392.06
2022-11-07T21:53:57.942Z,94388.47
2022-11-07T21:56:29.419Z,94391.13
2022-11-07T21:59:02.080Z,94392.22
2022-11-07T22:01:29.904Z,94383.16
2022-11-07T22:04:06.691Z,94391.97
2022-11-07T22:06:35.973Z,94385.50
2022-11-07T22:09:03.561Z,94378.00
2022-11-07T22:11:30.004Z,94382.13
2022-11-07T22:13:56.423Z,94375.91
2022-11-07T22:16:23.127Z,94355.47
2022-11-07T22:18:49.741Z,94363.22
2022-11-07T22:21:19.071Z,94371.53
2022-11-07T22:23:45.754Z,94367.16
2022-11-07T22:26:18.798Z,94363.84
2022-11-07T22:28:46.226Z,94362.31
2022-11-07T22:31:19.431Z,94363.38
2022-11-07T22:33:46.258Z,94362.34
2022-11-07T22:36:14.834Z,94357.22
2022-11-07T22:38:41.748Z,94365.00
2022-11-07T22:41:11.455Z,94359.81
2022-11-07T22:43:38.320Z,94360.34
2022-11-07T22:46:07.366Z,94360.38
2022-11-07T22:48:34.107Z,94359.59
2022-11-07T22:51:05.097Z,94355.19
2022-11-07T22:53:31.940Z,94338.19
2022-11-07T22:55:58.936Z,94347.78
2022-11-07T22:58:25.385Z,94351.16
2022-11-07T23:00:51.844Z,94343.91
2022-11-07T23:03:18.389Z,94346.00
2022-11-07T23:05:44.859Z,94341.34
2022-11-07T23:08:11.272Z,94337.72
2022-11-07T23:10:37.768Z,94339.81
2022-11-07T23:13:04.667Z,94333.84
2022-11-07T23:15:55.146Z,94342.66
2022-11-07T23:18:21.580Z,94337.22
2022-11-07T23:21:06.337Z,94335.94
2022-11-07T23:23:32.844Z,94331.03
2022-11-07T23:26:02.457Z,94332.84
2022-11-07T23:28:28.953Z,94335.44
2022-11-07T23:30:55.446Z,94330.00
2022-11-07T23:33:21.952Z,94337.00
2022-11-07T23:35:49.158Z,94330.25
2022-11-07T23:38:16.702Z,94323.25
2022-11-07T23:40:43.647Z,94327.41
2022-11-07T23:43:10.116Z,94320.66
2022-11-07T23:45:55.008Z,94332.59
2022-11-07T23:48:39.818Z,94333.63
2022-11-07T23:51:10.868Z,94319.41
2022-11-07T23:53:56.744Z,94335.94
2022-11-07T23:56:25.826Z,94332.03
2022-11-07T23:59:11.661Z,94299.22
